createdAt,value
2016-12-07T00:00:22.373Z,19.09
2016-12-07T00:01:31.240Z,19.17
2016-12-07T00:02:40.084Z,19.19
2016-12-07T00:03:48.928Z,19.12
2016-12-07T00:04:57.800Z,19.15
2016-12-07T00:06:06.663Z,19.07
2016-12-07T00:07:15.514Z,19.15
2016-12-07T00:08:24.353Z,19.16
2016-12-07T00:09:33.201Z,19.15
2016-12-07T00:10:42.066Z,19.04
2016-12-07T00:11:50.921Z,19.12
2016-12-07T00:12:59.765Z,19.19
2016-12-07T00:14:08.632Z,19.05
2016-12-07T00:15:17.496Z,19.15
2016-12-07T00:16:26.350Z,19.07
2016-12-07T00:17:35.208Z,19.07
2016-12-07T00:18:44.072Z,19.05
2016-12-07T00:19:52.907Z,19.08
2016-12-07T00:21:01.763Z,19.19
2016-12-07T00:22:10.620Z,19.08
2016-12-07T00:23:19.496Z,19.19
2016-12-07T00:24:28.348Z,19.08
2016-12-07T00:25:37.189Z,19.07
2016-12-07T00:26:46.050Z,19.08
2016-12-07T00:27:54.913Z,18.97
2016-12-07T00:29:03.760Z,19.07
2016-12-07T00:30:12.613Z,19.08
2016-12-07T00:31:21.473Z,19.11
2016-12-07T00:32:30.343Z,19.07
2016-12-07T00:33:39.195Z,19.09
2016-12-07T00:34:48.069Z,19.04
2016-12-07T00:35:56.907Z,19.05
2016-12-07T00:37:05.767Z,19.07
2016-12-07T00:38:14.617Z,19.09
2016-12-07T00:39:23.817Z,19.05
2016-12-07T00:40:32.677Z,18.97
2016-12-07T00:41:41.509Z,19.01
2016-12-07T00:42:50.371Z,18.97
2016-12-07T00:43:59.241Z,18.97
2016-12-07T00:45:08.100Z,19.04
2016-12-07T00:46:16.972Z,19.04
2016-12-07T00:47:25.847Z,18.98
2016-12-07T00:48:34.698Z,18.98
2016-12-07T00:49:43.528Z,18.96
2016-12-07T00:50:52.409Z,18.98
2016-12-07T00:52:01.282Z,18.98
2016-12-07T00:53:10.125Z,18.97
2016-12-07T00:54:18.984Z,19
2016-12-07T00:55:27.852Z,18.92
2016-12-07T00:56:36.697Z,18.98
2016-12-07T00:57:45.553Z,18.98
2016-12-07T00:58:54.416Z,19.04
2016-12-07T01:00:03.274Z,18.98
2016-12-07T01:01:12.120Z,18.98
2016-12-07T01:02:20.989Z,18.96
2016-12-07T01:03:29.817Z,18.98
2016-12-07T01:04:38.662Z,18.97
2016-12-07T01:05:47.528Z,19.04
2016-12-07T01:06:56.381Z,18.98
2016-12-07T01:08:05.254Z,19.05
2016-12-07T01:09:14.101Z,19
2016-12-07T01:10:22.946Z,18.97
2016-12-07T01:11:31.820Z,18.98
2016-12-07T01:12:40.670Z,18.94
2016-12-07T01:13:49.517Z,19
2016-12-07T01:14:58.373Z,18.91
2016-12-07T01:16:07.225Z,18.94
2016-12-07T01:17:16.067Z,18.92
2016-12-07T01:18:24.942Z,18.98
2016-12-07T01:19:33.799Z,19.01
2016-12-07T01:20:42.640Z,18.98
2016-12-07T01:21:51.490Z,19.01
2016-12-07T01:23:00.334Z,18.97
2016-12-07T01:24:09.213Z,18.91
2016-12-07T01:25:18.075Z,18.88
2016-12-07T01:26:26.909Z,18.96
2016-12-07T01:27:35.789Z,18.89
2016-12-07T01:28:44.639Z,18.91
2016-12-07T01:29:53.486Z,18.91
2016-12-07T01:31:02.344Z,18.97
2016-12-07T01:32:11.218Z,18.88
2016-12-07T01:33:20.055Z,18.94
2016-12-07T01:34:28.904Z,18.91
2016-12-07T01:35:37.751Z,18.91
2016-12-07T01:36:46.616Z,18.88
2016-12-07T01:37:55.483Z,18.86
2016-12-07T01:39:04.315Z,18.89
2016-12-07T01:40:13.172Z,18.86
2016-12-07T01:41:22.040Z,18.82
2016-12-07T01:42:30.860Z,18.89
2016-12-07T01:43:39.726Z,18.88
2016-12-07T01:44:48.590Z,18.83
2016-12-07T01:45:57.752Z,18.89
2016-12-07T01:47:06.594Z,18.83
2016-12-07T01:48:15.463Z,18.94
2016-12-07T01:49:24.308Z,18.86
2016-12-07T01:50:33.155Z,18.94
2016-12-07T01:51:42.014Z,18.88
2016-12-07T01:52:50.867Z,18.91
2016-12-07T01:53:59.703Z,18.85
2016-12-07T01:55:08.566Z,18.91
2016-12-07T01:56:17.428Z,18.83
2016-12-07T01:57:26.301Z,18.89
2016-12-07T01:58:35.163Z,18.76
2016-12-07T01:59:44.023Z,18.71
2016-12-07T02:00:52.863Z,18.74
2016-12-07T02:02:01.725Z,18.76
2016-12-07T02:03:10.598Z,18.74
2016-12-07T02:04:19.431Z,18.68
2016-12-07T02:05:28.297Z,18.78
2016-12-07T02:06:37.141Z,18.74
2016-12-07T02:07:46.035Z,18.7
2016-12-07T02:08:55.218Z,18.67
2016-12-07T02:10:04.056Z,18.7
2016-12-07T02:11:12.910Z,18.64
2016-12-07T02:12:21.775Z,18.58
2016-12-07T02:13:30.620Z,18.55
2016-12-07T02:14:39.481Z,18.61
2016-12-07T02:15:48.348Z,18.48
2016-12-07T02:16:57.197Z,18.48
2016-12-07T02:18:06.038Z,18.49
2016-12-07T02:19:14.904Z,18.45
2016-12-07T02:20:23.746Z,18.41
2016-12-07T02:21:32.644Z,18.42
2016-12-07T02:22:41.475Z,18.39
2016-12-07T02:23:50.323Z,18.41
2016-12-07T02:24:59.197Z,18.37
2016-12-07T02:26:08.045Z,18.37
2016-12-07T02:27:16.893Z,18.39
2016-12-07T02:28:25.754Z,18.33
2016-12-07T02:29:34.597Z,18.31
2016-12-07T02:30:43.437Z,18.3
2016-12-07T02:31:52.311Z,18.26
2016-12-07T02:33:01.199Z,18.36
2016-12-07T02:34:10.048Z,18.39
2016-12-07T02:35:18.896Z,18.27
2016-12-07T02:36:27.741Z,18.24
2016-12-07T02:37:36.602Z,18.23
2016-12-07T02:38:45.765Z,18.23
2016-12-07T02:39:54.599Z,18.21
2016-12-07T02:41:03.464Z,18.24
2016-12-07T02:42:12.310Z,18.21
2016-12-07T02:43:21.155Z,18.26
2016-12-07T02:44:30.020Z,18.24
2016-12-07T02:45:38.888Z,18.18
2016-12-07T02:46:47.719Z,18.18
2016-12-07T02:47:56.569Z,18.16
2016-12-07T02:49:05.727Z,18.21
2016-12-07T02:50:14.600Z,18.19
2016-12-07T02:51:23.479Z,18.19
2016-12-07T02:52:32.322Z,18.26
2016-12-07T02:53:41.172Z,18.08
2016-12-07T02:54:50.023Z,18.08
2016-12-07T02:55:58.860Z,18.15
2016-12-07T02:57:07.716Z,18.13
2016-12-07T02:58:16.582Z,18.15
2016-12-07T02:59:25.422Z,18.03
2016-12-07T03:00:34.275Z,18.13
2016-12-07T03:01:43.147Z,18.12
2016-12-07T03:02:51.996Z,18.08
2016-12-07T03:04:00.858Z,18.06
2016-12-07T03:05:09.691Z,18.05
2016-12-07T03:06:18.551Z,18.03
2016-12-07T03:07:27.420Z,17.98
2016-12-07T03:08:36.263Z,18.02
2016-12-07T03:09:45.142Z,18.02
2016-12-07T03:10:54.002Z,18.05
2016-12-07T03:12:02.833Z,17.9
2016-12-07T03:13:11.683Z,17.98
2016-12-07T03:14:20.547Z,17.95
2016-12-07T03:15:29.395Z,17.9
2016-12-07T03:16:38.232Z,17.97
2016-12-07T03:17:47.078Z,17.98
2016-12-07T03:18:55.925Z,18.02
2016-12-07T03:20:04.799Z,17.98
2016-12-07T03:21:13.643Z,17.97
2016-12-07T03:22:22.495Z,17.91
2016-12-07T03:23:31.348Z,17.94
2016-12-07T03:24:40.196Z,17.95
2016-12-07T03:25:49.046Z,17.91
2016-12-07T03:26:57.949Z,17.94
2016-12-07T03:28:06.798Z,17.97
2016-12-07T03:29:15.635Z,17.88
2016-12-07T03:30:24.499Z,17.93
2016-12-07T03:31:33.368Z,17.91
2016-12-07T03:32:42.220Z,17.91
2016-12-07T03:33:51.075Z,17.88
2016-12-07T03:34:59.922Z,17.9
2016-12-07T03:36:08.797Z,17.9
2016-12-07T03:37:17.653Z,17.87
2016-12-07T03:38:26.496Z,17.87
2016-12-07T03:39:35.364Z,17.86
2016-12-07T03:40:44.214Z,17.86
2016-12-07T03:41:53.040Z,17.75
2016-12-07T03:43:01.892Z,17.82
2016-12-07T03:44:10.760Z,17.82
2016-12-07T03:45:19.598Z,17.79
2016-12-07T03:46:28.453Z,17.75
2016-12-07T03:47:37.317Z,17.78
2016-12-07T03:48:46.154Z,17.76
2016-12-07T03:49:54.997Z,17.75
2016-12-07T03:51:03.867Z,17.72
2016-12-07T03:52:12.757Z,17.72
2016-12-07T03:53:21.597Z,17.73
2016-12-07T03:54:30.452Z,17.71
2016-12-07T03:55:39.315Z,17.75
2016-12-07T03:56:48.151Z,17.75
2016-12-07T03:57:57.023Z,17.72
2016-12-07T03:59:05.880Z,17.66
2016-12-07T04:00:14.722Z,17.73
2016-12-07T04:01:23.577Z,17.76
2016-12-07T04:02:32.421Z,17.66
2016-12-07T04:03:41.292Z,17.68
2016-12-07T04:04:50.147Z,17.71
2016-12-07T04:05:58.985Z,17.71
2016-12-07T04:07:07.885Z,17.65
2016-12-07T04:08:16.733Z,17.68
2016-12-07T04:09:25.569Z,17.68
2016-12-07T04:10:34.423Z,17.71
2016-12-07T04:11:43.322Z,17.71
2016-12-07T04:12:52.162Z,17.66
2016-12-07T04:14:01.021Z,17.68
2016-12-07T04:15:09.887Z,17.66
2016-12-07T04:16:18.724Z,17.65
2016-12-07T04:17:27.592Z,17.68
2016-12-07T04:18:36.425Z,17.68
2016-12-07T04:19:45.271Z,17.59
2016-12-07T04:20:54.128Z,17.65
2016-12-07T04:22:02.980Z,17.54
2016-12-07T04:23:11.835Z,17.65
2016-12-07T04:24:20.698Z,17.65
2016-12-07T04:25:29.557Z,17.65
2016-12-07T04:26:38.394Z,17.6
2016-12-07T04:27:47.257Z,17.63
2016-12-07T04:28:56.102Z,17.57
2016-12-07T04:30:05.258Z,17.65
2016-12-07T04:31:14.451Z,17.66
2016-12-07T04:32:23.284Z,17.65
2016-12-07T04:33:32.149Z,17.46
2016-12-07T04:34:40.998Z,17.63
2016-12-07T04:35:49.846Z,17.66
2016-12-07T04:36:58.706Z,17.56
2016-12-07T04:38:07.552Z,17.65
2016-12-07T04:39:16.398Z,17.57
2016-12-07T04:40:25.267Z,17.49
2016-12-07T04:41:34.132Z,17.56
2016-12-07T04:42:42.967Z,17.56
2016-12-07T04:43:51.828Z,17.6
2016-12-07T04:45:00.722Z,17.65
2016-12-07T04:46:09.579Z,17.73
2016-12-07T04:47:18.436Z,17.73
2016-12-07T04:48:27.261Z,17.75
2016-12-07T04:49:36.125Z,17.78
2016-12-07T04:50:44.981Z,17.84
2016-12-07T04:51:53.814Z,17.9
2016-12-07T04:53:02.680Z,17.93
2016-12-07T04:54:11.545Z,17.93
2016-12-07T04:55:20.371Z,18.03
2016-12-07T04:56:29.226Z,18
2016-12-07T04:57:38.089Z,18.11
2016-12-07T04:58:46.935Z,18.11
2016-12-07T04:59:55.779Z,18.16
2016-12-07T05:01:04.637Z,18.12
2016-12-07T05:02:13.503Z,18.18
2016-12-07T05:03:22.367Z,18.19
2016-12-07T05:04:31.203Z,18.16
2016-12-07T05:05:40.055Z,18.21
2016-12-07T05:06:48.932Z,18.15
2016-12-07T05:07:57.770Z,18.27
2016-12-07T05:09:06.617Z,18.15
2016-12-07T05:10:15.492Z,18.21
2016-12-07T05:11:24.330Z,18.26
2016-12-07T05:12:33.184Z,18.21
2016-12-07T05:13:42.042Z,18.24
2016-12-07T05:14:50.893Z,18.24
2016-12-07T05:15:59.763Z,18.19
2016-12-07T05:17:08.599Z,18.19
2016-12-07T05:18:17.442Z,18.34
2016-12-07T05:19:26.313Z,18.3
2016-12-07T05:20:35.154Z,18.24
2016-12-07T05:21:44.007Z,18.28
2016-12-07T05:22:52.870Z,18.31
2016-12-07T05:24:01.727Z,18.36
2016-12-07T05:25:10.569Z,18.41
2016-12-07T05:26:19.474Z,18.33
2016-12-07T05:27:28.318Z,18.24
2016-12-07T05:28:37.167Z,18.3
2016-12-07T05:29:46.036Z,18.33
2016-12-07T05:30:54.870Z,18.3
2016-12-07T05:32:03.736Z,18.37
2016-12-07T05:33:12.584Z,18.39
2016-12-07T05:34:21.422Z,18.37
2016-12-07T05:35:30.277Z,18.34
2016-12-07T05:36:39.129Z,18.3
2016-12-07T05:37:47.978Z,18.31
2016-12-07T05:38:56.840Z,18.39
2016-12-07T05:40:05.705Z,18.39
2016-12-07T05:41:14.547Z,18.39
2016-12-07T05:42:23.408Z,18.33
2016-12-07T05:43:32.271Z,18.42
2016-12-07T05:44:41.113Z,18.41
2016-12-07T05:45:49.964Z,18.41
2016-12-07T05:46:58.838Z,18.46
2016-12-07T05:48:07.699Z,18.42
2016-12-07T05:49:16.542Z,18.42
2016-12-07T05:50:25.402Z,18.36
2016-12-07T05:51:34.252Z,18.42
2016-12-07T05:52:43.085Z,18.45
2016-12-07T05:53:51.961Z,18.43
2016-12-07T05:55:00.819Z,18.46
2016-12-07T05:56:09.675Z,18.46
2016-12-07T05:57:18.527Z,18.41
2016-12-07T05:58:27.388Z,18.37
2016-12-07T05:59:36.274Z,18.46
2016-12-07T06:00:45.123Z,18.43
2016-12-07T06:01:53.963Z,18.51
2016-12-07T06:03:02.845Z,18.49
2016-12-07T06:04:11.713Z,18.49
2016-12-07T06:05:20.547Z,18.48
2016-12-07T06:06:29.408Z,18.52
2016-12-07T06:07:38.281Z,18.52
2016-12-07T06:08:47.115Z,18.57
2016-12-07T06:09:55.983Z,18.58
2016-12-07T06:11:04.836Z,18.55
2016-12-07T06:12:13.686Z,18.57
2016-12-07T06:13:22.534Z,18.58
2016-12-07T06:14:31.393Z,18.55
2016-12-07T06:15:40.266Z,18.58
2016-12-07T06:16:49.134Z,18.52
2016-12-07T06:17:57.972Z,18.49
2016-12-07T06:19:06.836Z,18.52
2016-12-07T06:20:15.706Z,18.61
2016-12-07T06:21:24.553Z,18.53
2016-12-07T06:22:33.419Z,18.52
2016-12-07T06:23:42.294Z,18.58
2016-12-07T06:24:51.140Z,18.63
2016-12-07T06:25:59.991Z,18.61
2016-12-07T06:27:08.852Z,18.57
2016-12-07T06:28:17.697Z,18.6
2016-12-07T06:29:26.561Z,18.58
2016-12-07T06:30:35.401Z,18.61
2016-12-07T06:31:44.245Z,18.57
2016-12-07T06:32:53.108Z,18.55
2016-12-07T06:34:01.983Z,18.53
2016-12-07T06:35:10.835Z,18.42
2016-12-07T06:36:19.694Z,18.55
2016-12-07T06:37:28.545Z,18.58
2016-12-07T06:38:37.369Z,18.55
2016-12-07T06:39:46.246Z,18.57
2016-12-07T06:40:55.106Z,18.58
2016-12-07T06:42:03.947Z,18.55
2016-12-07T06:43:12.811Z,18.61
2016-12-07T06:44:21.659Z,18.58
2016-12-07T06:45:30.515Z,18.64
2016-12-07T06:46:39.361Z,18.61
2016-12-07T06:47:48.200Z,18.64
2016-12-07T06:48:57.072Z,18.63
2016-12-07T06:50:05.933Z,18.57
2016-12-07T06:51:14.783Z,18.66
2016-12-07T06:52:23.642Z,18.66
2016-12-07T06:53:32.501Z,18.67
2016-12-07T06:54:41.339Z,18.67
2016-12-07T06:55:50.201Z,18.63
2016-12-07T06:56:59.097Z,18.71
2016-12-07T06:58:07.942Z,18.71
2016-12-07T06:59:16.798Z,18.68
2016-12-07T07:00:25.656Z,18.7
2016-12-07T07:01:34.525Z,18.73
2016-12-07T07:02:43.390Z,18.76
2016-12-07T07:03:52.225Z,18.71
2016-12-07T07:05:01.089Z,18.74
2016-12-07T07:06:09.956Z,18.76
2016-12-07T07:07:18.802Z,18.67
2016-12-07T07:08:27.650Z,18.76
2016-12-07T07:09:36.516Z,18.76
2016-12-07T07:10:45.354Z,18.7
2016-12-07T07:11:54.211Z,18.74
2016-12-07T07:13:03.063Z,18.74
2016-12-07T07:14:11.922Z,18.74
2016-12-07T07:15:20.782Z,18.73
2016-12-07T07:16:29.635Z,18.79
2016-12-07T07:17:38.472Z,18.7
2016-12-07T07:18:47.355Z,18.79
2016-12-07T07:19:56.199Z,18.71
2016-12-07T07:21:05.042Z,18.74
2016-12-07T07:22:13.899Z,18.71
2016-12-07T07:23:22.738Z,18.71
2016-12-07T07:24:31.578Z,18.6
2016-12-07T07:25:40.449Z,18.68
2016-12-07T07:26:49.309Z,18.7
2016-12-07T07:27:58.171Z,18.76
2016-12-07T07:29:07.023Z,18.71
2016-12-07T07:30:15.875Z,18.73
2016-12-07T07:31:24.747Z,18.78
2016-12-07T07:32:33.596Z,18.74
2016-12-07T07:33:42.423Z,18.74
2016-12-07T07:34:51.290Z,18.7
2016-12-07T07:36:00.147Z,18.71
2016-12-07T07:37:09.026Z,18.74
2016-12-07T07:38:17.902Z,18.71
2016-12-07T07:39:26.773Z,18.76
2016-12-07T07:40:35.928Z,18.74
2016-12-07T07:41:44.802Z,18.76
2016-12-07T07:42:53.673Z,18.85
2016-12-07T07:44:02.844Z,18.73
2016-12-07T07:45:11.698Z,18.74
2016-12-07T07:46:20.569Z,18.74
2016-12-07T07:47:29.424Z,18.76
2016-12-07T07:48:38.270Z,18.74
2016-12-07T07:49:47.138Z,18.78
2016-12-07T07:50:55.991Z,18.76
2016-12-07T07:52:04.838Z,18.74
2016-12-07T07:53:13.698Z,18.74
2016-12-07T07:54:22.559Z,18.83
2016-12-07T07:55:31.423Z,18.73
2016-12-07T07:56:40.289Z,18.79
2016-12-07T07:57:49.134Z,18.88
2016-12-07T07:58:57.999Z,18.88
2016-12-07T08:00:06.859Z,18.85
2016-12-07T08:01:15.688Z,18.85
2016-12-07T08:02:24.558Z,18.88
2016-12-07T08:03:33.419Z,18.89
2016-12-07T08:04:42.266Z,18.88
2016-12-07T08:05:51.134Z,18.91
2016-12-07T08:07:00.006Z,18.82
2016-12-07T08:08:08.872Z,18.85
2016-12-07T08:09:17.729Z,18.81
2016-12-07T08:10:26.608Z,18.89
2016-12-07T08:11:35.451Z,18.91
2016-12-07T08:12:44.308Z,18.86
2016-12-07T08:13:53.164Z,18.89
2016-12-07T08:15:02.032Z,18.92
2016-12-07T08:16:11.223Z,18.91
2016-12-07T08:17:20.065Z,18.91
2016-12-07T08:18:28.918Z,18.94
2016-12-07T08:19:37.793Z,18.88
2016-12-07T08:20:46.637Z,18.96
2016-12-07T08:21:55.490Z,18.91
2016-12-07T08:23:04.352Z,18.96
2016-12-07T08:24:13.205Z,19.04
2016-12-07T08:25:22.040Z,19
2016-12-07T08:26:30.892Z,19.01
2016-12-07T08:27:39.749Z,18.96
2016-12-07T08:28:48.614Z,19
2016-12-07T08:29:57.480Z,18.98
2016-12-07T08:31:06.330Z,18.96
2016-12-07T08:32:15.207Z,19
2016-12-07T08:33:24.057Z,19
2016-12-07T08:34:32.904Z,18.97
2016-12-07T08:35:41.774Z,19.01
2016-12-07T08:36:50.627Z,18.97
2016-12-07T10:25:50.034Z,21.8
2016-12-07T10:27:00.295Z,21.69
2016-12-07T10:28:10.568Z,21.7
2016-12-07T10:29:20.203Z,21.65
2016-12-07T10:30:30.178Z,21.69
2016-12-07T10:31:40.754Z,21.72
2016-12-07T10:32:51.026Z,21.83
2016-12-07T10:34:00.694Z,21.94
2016-12-07T10:35:10.353Z,22.03
2016-12-07T10:36:20.379Z,22.01
2016-12-07T10:37:30.994Z,22.08
2016-12-07T10:38:40.648Z,22.23
2016-12-07T10:39:50.623Z,22.3
2016-12-07T10:41:00.596Z,22.28
2016-12-07T10:42:10.277Z,22.26
2016-12-07T10:43:20.623Z,22.46
2016-12-07T10:44:30.020Z,22.47
2016-12-07T10:45:40.028Z,22.59
2016-12-07T10:46:49.730Z,22.58
2016-12-07T10:47:59.695Z,22.7
2016-12-07T10:49:09.704Z,22.65
2016-12-07T10:50:20.018Z,22.8
2016-12-07T10:51:30.290Z,22.74
2016-12-07T10:52:40.013Z,22.88
2016-12-07T10:53:49.720Z,22.81
2016-12-07T10:55:00.092Z,22.88
2016-12-07T10:56:10.091Z,23.01
2016-12-07T10:57:20.406Z,23.06
2016-12-07T10:58:30.421Z,23.04
2016-12-07T10:59:40.648Z,22.99
2016-12-07T11:00:50.943Z,23.1
2016-12-07T11:02:00.648Z,22.98
2016-12-07T11:03:10.645Z,23.06
2016-12-07T11:04:20.952Z,23.07
2016-12-07T11:05:31.249Z,23.13
2016-12-07T11:06:41.832Z,23.1
2016-12-07T11:07:51.801Z,23.2
2016-12-07T11:09:01.462Z,23.2
2016-12-07T11:10:11.753Z,23.17
2016-12-07T11:11:22.015Z,23.18
2016-12-07T11:12:31.984Z,23.32
2016-12-07T11:13:42.326Z,23.34
2016-12-07T11:14:52.623Z,23.28
2016-12-07T11:16:02.918Z,23.36
2016-12-07T11:17:13.426Z,23.32
2016-12-07T11:18:24.196Z,23.34
2016-12-07T11:19:34.537Z,23.34
2016-12-07T11:20:44.877Z,23.32
2016-12-07T11:21:55.625Z,23.45
2016-12-07T11:23:05.537Z,23.33
2016-12-07T11:24:15.581Z,23.47
2016-12-07T11:25:26.013Z,23.48
2016-12-07T11:26:35.990Z,23.49
2016-12-07T11:27:45.697Z,23.44
2016-12-07T11:28:55.676Z,23.42
2016-12-07T11:30:05.635Z,23.42
2016-12-07T11:31:15.330Z,23.51
2016-12-07T11:32:25.350Z,23.52
2016-12-07T11:33:35.670Z,23.49
2016-12-07T11:34:46.160Z,23.49
2016-12-07T11:35:56.137Z,23.54
2016-12-07T11:37:06.106Z,23.52
2016-12-07T11:38:15.452Z,23.55
2016-12-07T11:39:25.750Z,23.58
2016-12-07T11:40:36.026Z,23.58
2016-12-07T11:41:46.003Z,23.55
2016-12-07T11:42:55.972Z,23.56
2016-12-07T11:44:06.262Z,23.66
2016-12-07T11:45:16.247Z,23.58
2016-12-07T11:46:26.234Z,23.59
2016-12-07T11:47:36.218Z,23.66
2016-12-07T11:48:46.510Z,23.69
2016-12-07T11:49:56.810Z,23.71
2016-12-07T11:51:06.794Z,23.7
2016-12-07T11:52:17.060Z,23.67
2016-12-07T11:53:27.348Z,23.7
2016-12-07T11:54:37.696Z,23.71
2016-12-07T11:55:47.054Z,23.73
2016-12-07T11:56:57.325Z,23.71
2016-12-07T11:58:07.603Z,23.74
2016-12-07T11:59:17.904Z,23.71
2016-12-07T12:00:27.881Z,23.71
2016-12-07T12:01:38.176Z,23.84
2016-12-07T12:02:48.141Z,23.77
2016-12-07T12:03:58.097Z,23.81
2016-12-07T12:05:07.754Z,23.86
2016-12-07T12:06:17.721Z,23.81
2016-12-07T12:07:27.396Z,23.89
2016-12-07T12:08:37.696Z,23.82
2016-12-07T12:09:47.949Z,23.77
2016-12-07T12:10:58.230Z,23.91
2016-12-07T12:12:08.507Z,23.82
2016-12-07T12:13:18.484Z,23.84
2016-12-07T12:14:28.879Z,23.86
2016-12-07T12:15:39.448Z,23.88
2016-12-07T12:16:49.424Z,23.91
2016-12-07T12:17:59.735Z,23.88
2016-12-07T12:19:10.010Z,23.86
2016-12-07T12:20:20.030Z,23.85
2016-12-07T12:21:29.700Z,23.88
2016-12-07T12:22:39.975Z,23.92
2016-12-07T12:23:49.962Z,23.85
2016-12-07T12:25:00.226Z,23.86
2016-12-07T12:26:10.503Z,23.88
2016-12-07T12:27:20.478Z,23.92
2016-12-07T12:28:14.999Z,23.01
2016-12-07T12:29:25.015Z,22.61
2016-12-07T12:30:34.663Z,22.34
2016-12-07T12:31:44.647Z,22.19
2016-12-07T12:32:54.912Z,22.15
2016-12-07T12:34:04.877Z,22.1
2016-12-07T12:35:15.162Z,22.14
2016-12-07T12:36:24.833Z,22.04
2016-12-07T12:37:35.418Z,22
2016-12-07T12:38:45.373Z,21.97
2016-12-07T12:39:55.363Z,22.04
2016-12-07T12:41:05.661Z,22.14
2016-12-07T12:42:15.632Z,22.04
2016-12-07T12:43:26.198Z,22.03
2016-12-07T12:44:35.865Z,22.06
2016-12-07T12:45:46.150Z,22.06
2016-12-07T12:46:56.429Z,22.01
2016-12-07T12:48:06.711Z,22.12
2016-12-07T12:49:17.286Z,22.04
2016-12-07T12:50:27.239Z,22.06
2016-12-07T12:51:37.526Z,22.01
2016-12-07T12:52:47.801Z,22.04
2016-12-07T12:53:58.085Z,22
2016-12-07T12:55:08.669Z,21.99
2016-12-07T12:56:18.950Z,22.01
2016-12-07T12:57:29.231Z,22.01
2016-12-07T12:58:39.517Z,22.03
2016-12-07T12:59:49.498Z,21.99
2016-12-07T13:01:00.130Z,22.03
2016-12-07T13:02:09.792Z,22.06
2016-12-07T13:03:20.085Z,22
2016-12-07T13:04:30.095Z,22.01
2016-12-07T13:05:40.123Z,22.04
2016-12-07T13:06:50.723Z,22.07
2016-12-07T13:08:01.023Z,21.97
2016-12-07T13:09:11.051Z,21.99
2016-12-07T13:10:21.030Z,22.06
2016-12-07T13:11:31.017Z,21.97
2016-12-07T13:12:40.969Z,22.06
2016-12-07T13:13:50.943Z,22
2016-12-07T13:15:01.244Z,22
2016-12-07T13:16:11.212Z,21.97
2016-12-07T13:17:20.573Z,22.01
2016-12-07T13:18:30.869Z,21.99
2016-12-07T13:19:40.854Z,21.94
2016-12-07T13:20:50.834Z,21.97
2016-12-07T13:22:01.113Z,21.94
2016-12-07T13:23:11.413Z,21.94
2016-12-07T13:24:21.376Z,21.91
2016-12-07T13:25:31.666Z,21.99
2016-12-07T13:26:41.932Z,21.94
2016-12-07T13:27:51.883Z,21.96
2016-12-07T13:29:01.858Z,21.96
2016-12-07T13:30:12.411Z,21.97
2016-12-07T13:30:53.209Z,21.94
2016-12-07T13:32:02.859Z,21.84
2016-12-07T13:33:12.871Z,21.91
2016-12-07T13:34:23.212Z,21.89
2016-12-07T13:35:33.800Z,21.96
2016-12-07T13:36:44.094Z,21.88
2016-12-07T13:37:54.387Z,21.88
2016-12-07T13:39:04.068Z,21.89
2016-12-07T13:40:13.780Z,21.81
2016-12-07T13:41:24.375Z,21.77
2016-12-07T13:42:34.029Z,21.81
2016-12-07T13:43:43.373Z,21.7
2016-12-07T13:44:53.346Z,21.77
2016-12-07T13:46:03.296Z,21.68
2016-12-07T13:47:13.895Z,21.69
2016-12-07T13:48:24.169Z,21.62
2016-12-07T13:49:34.454Z,21.62
2016-12-07T13:50:44.726Z,21.62
2016-12-07T13:51:54.703Z,21.59
2016-12-07T13:53:04.659Z,21.66
2016-12-07T13:54:14.963Z,21.56
2016-12-07T13:55:25.251Z,21.59
2016-12-07T13:56:35.529Z,21.56
2016-12-07T13:57:45.516Z,21.6
2016-12-07T13:58:56.117Z,21.58
2016-12-07T14:00:06.096Z,21.56
2016-12-07T14:01:16.361Z,21.58
2016-12-07T14:02:26.341Z,21.6
2016-12-07T14:03:36.325Z,21.72
2016-12-07T14:04:46.882Z,21.62
2016-12-07T14:05:56.850Z,21.63
2016-12-07T14:07:07.125Z,21.51
2016-12-07T14:08:17.093Z,21.56
2016-12-07T14:09:27.074Z,21.51
2016-12-07T14:10:37.692Z,21.45
2016-12-07T14:11:47.675Z,21.47
2016-12-07T14:12:57.336Z,21.5
2016-12-07T14:14:06.996Z,21.53
2016-12-07T14:15:16.345Z,21.4
2016-12-07T14:16:26.629Z,21.47
2016-12-07T14:17:36.625Z,21.56
2016-12-07T14:18:46.600Z,21.41
2016-12-07T14:19:56.559Z,21.44
2016-12-07T14:21:06.849Z,21.41
2016-12-07T14:22:17.467Z,21.45
2016-12-07T14:23:27.131Z,21.4
2016-12-07T14:24:37.402Z,21.4
2016-12-07T14:25:47.702Z,21.41
2016-12-07T14:26:57.675Z,21.43
2016-12-07T14:28:07.960Z,21.38
2016-12-07T14:29:18.240Z,21.37
2016-12-07T14:30:28.221Z,21.38
2016-12-07T14:31:38.221Z,21.45
2016-12-07T14:32:48.230Z,21.38
2016-12-07T14:33:58.516Z,21.41
2016-12-07T14:35:08.801Z,21.37
2016-12-07T14:36:19.089Z,21.43
2016-12-07T14:37:29.389Z,21.43
2016-12-07T14:38:39.664Z,21.35
2016-12-07T14:39:49.325Z,21.35
2016-12-07T14:40:59.612Z,21.3
2016-12-07T14:42:09.573Z,21.33
2016-12-07T14:43:19.549Z,21.37
2016-12-07T14:44:29.826Z,21.41
2016-12-07T14:45:39.496Z,21.41
2016-12-07T14:46:49.497Z,21.41
2016-12-07T14:47:59.471Z,21.44
2016-12-07T14:49:09.452Z,21.41
2016-12-07T14:50:19.407Z,21.44
2016-12-07T14:51:29.396Z,21.5
2016-12-07T14:52:39.052Z,21.58
2016-12-07T14:53:49.019Z,21.58
2016-12-07T14:54:59.295Z,21.62
2016-12-07T14:56:09.887Z,21.51
2016-12-07T14:57:19.856Z,21.5
2016-12-07T14:58:29.531Z,21.54
2016-12-07T14:59:39.505Z,21.54
2016-12-07T15:00:49.476Z,21.53
2016-12-07T15:02:00.039Z,21.54
2016-12-07T15:03:10.302Z,21.58
2016-12-07T15:04:20.267Z,21.58
2016-12-07T15:05:30.234Z,21.66
2016-12-07T15:06:39.905Z,21.6
2016-12-07T15:07:49.901Z,21.51
2016-12-07T15:09:00.183Z,21.59
2016-12-07T15:10:10.135Z,21.51
2016-12-07T15:11:20.099Z,21.59
2016-12-07T15:12:30.361Z,21.6
2016-12-07T15:13:40.957Z,21.62
2016-12-07T15:14:51.257Z,21.54
2016-12-07T15:16:01.235Z,21.63
2016-12-07T15:17:11.536Z,21.56
2016-12-07T15:18:21.813Z,21.63
2016-12-07T15:19:31.774Z,21.6
2016-12-07T15:20:41.758Z,21.58
2016-12-07T15:21:51.729Z,21.59
2016-12-07T15:23:01.707Z,21.54
2016-12-07T15:24:11.682Z,21.6
2016-12-07T15:25:21.945Z,21.56
2016-12-07T15:26:31.617Z,21.59
2016-12-07T15:27:41.902Z,21.68
2016-12-07T15:28:52.214Z,21.59
2016-12-07T15:30:02.208Z,21.6
2016-12-07T15:31:12.785Z,21.65
2016-12-07T15:32:22.758Z,21.6
2016-12-07T15:33:32.719Z,21.59
2016-12-07T15:34:42.703Z,21.6
2016-12-07T15:35:52.938Z,21.68
2016-12-07T15:37:02.895Z,21.62
2016-12-07T15:38:12.874Z,21.59
2016-12-07T15:39:23.162Z,21.59
2016-12-07T15:40:33.445Z,21.58
2016-12-07T15:41:43.733Z,21.56
2016-12-07T15:42:53.997Z,21.56
2016-12-07T15:44:03.978Z,21.59
2016-12-07T15:45:13.960Z,21.62
2016-12-07T15:46:23.919Z,21.6
2016-12-07T15:47:33.574Z,21.65
2016-12-07T15:48:43.531Z,21.6
2016-12-07T15:49:52.883Z,21.56
2016-12-07T15:51:03.176Z,21.66
2016-12-07T15:52:13.138Z,21.59
2016-12-07T15:53:22.797Z,21.58
2016-12-07T15:54:32.780Z,21.62
2016-12-07T15:55:42.739Z,21.6
2016-12-07T15:56:53.066Z,21.66
2016-12-07T15:58:03.338Z,21.58
2016-12-07T15:59:12.989Z,21.65
2016-12-07T16:00:23.584Z,21.56
2016-12-07T16:01:33.894Z,21.63
2016-12-07T16:02:43.546Z,21.66
2016-12-07T16:03:53.791Z,21.58
2016-12-07T16:05:03.757Z,21.69
2016-12-07T16:06:14.369Z,21.58
2016-12-07T16:07:24.023Z,21.6
2016-12-07T16:08:34.002Z,21.58
2016-12-07T16:09:43.668Z,21.59
2016-12-07T16:10:53.627Z,21.68
2016-12-07T16:12:03.895Z,21.68
2016-12-07T16:13:13.879Z,21.6
2016-12-07T16:14:24.429Z,21.65
2016-12-07T16:15:34.120Z,21.69
2016-12-07T16:16:44.394Z,21.68
2016-12-07T16:17:54.650Z,21.63
2016-12-07T16:19:04.938Z,21.6
2016-12-07T16:20:14.925Z,21.6
2016-12-07T16:21:24.599Z,21.63
2016-12-07T16:22:34.877Z,21.58
2016-12-07T16:23:45.145Z,21.6
2016-12-07T16:24:55.432Z,21.62
2016-12-07T16:26:05.711Z,21.68
2016-12-07T16:27:15.361Z,21.66
2016-12-07T16:28:25.624Z,21.66
2016-12-07T16:29:35.893Z,21.63
2016-12-07T16:30:46.184Z,21.6
2016-12-07T16:31:55.512Z,21.66
2016-12-07T16:33:05.809Z,21.68
2016-12-07T16:34:15.772Z,21.59
2016-12-07T16:35:26.033Z,21.62
2016-12-07T16:36:35.987Z,21.58
2016-12-07T16:37:46.255Z,21.65
2016-12-07T16:38:55.609Z,21.62
2016-12-07T16:40:05.897Z,21.62
2016-12-07T16:41:16.486Z,21.65
2016-12-07T16:42:25.827Z,21.62
2016-12-07T16:43:36.100Z,21.62